createdAt,value
2018-03-29T00:00:18.783Z,4.80
2018-03-29T00:01:21.270Z,4.20
2018-03-29T00:02:24.521Z,5.55
2018-03-29T00:03:27.020Z,4.82
2018-03-29T00:04:30.273Z,5.07
2018-03-29T00:05:32.768Z,6.37
2018-03-29T00:06:35.262Z,4.50
2018-03-29T00:07:38.533Z,4.20
2018-03-29T00:08:41.810Z,5.30
2018-03-29T00:09:44.335Z,4.80
2018-03-29T00:10:46.829Z,5.12
2018-03-29T00:11:49.315Z,7.20
2018-03-29T00:12:51.794Z,6.00
2018-03-29T00:13:54.279Z,5.90
2018-03-29T00:14:57.561Z,5.55
2018-03-29T00:16:00.823Z,5.43
2018-03-29T00:17:03.317Z,5.47
2018-03-29T00:18:06.580Z,4.65
2018-03-29T00:19:09.057Z,4.65
2018-03-29T00:20:13.073Z,4.62
2018-03-29T00:21:15.579Z,4.20
2018-03-29T00:22:18.082Z,4.85
2018-03-29T00:23:20.587Z,4.80
2018-03-29T00:24:23.078Z,4.00
2018-03-29T00:25:25.580Z,4.82
2018-03-29T00:26:28.062Z,4.10
2018-03-29T00:27:30.552Z,5.72
2018-03-29T00:28:33.027Z,4.70
2018-03-29T00:29:35.524Z,5.57
2018-03-29T00:30:38.008Z,4.30
2018-03-29T00:31:40.514Z,5.45
2018-03-29T00:32:43.009Z,5.12
2018-03-29T00:33:47.010Z,4.28
2018-03-29T00:34:49.498Z,4.55
2018-03-29T00:35:52.764Z,6.93
2018-03-29T00:36:55.267Z,3.40
2018-03-29T00:37:58.660Z,5.28
2018-03-29T00:39:01.141Z,5.68
2018-03-29T00:40:03.644Z,4.10
2018-03-29T00:41:06.137Z,4.43
2018-03-29T00:42:09.470Z,5.40
2018-03-29T00:43:11.950Z,4.37
2018-03-29T00:44:14.438Z,5.15
2018-03-29T00:45:16.918Z,5.75
2018-03-29T00:46:19.435Z,5.20
2018-03-29T00:47:22.705Z,5.75
2018-03-29T00:48:25.985Z,4.47
2018-03-29T00:49:29.251Z,5.25
2018-03-29T00:50:31.726Z,5.90
2018-03-29T00:51:34.214Z,9.38
2018-03-29T00:52:36.729Z,5.20
2018-03-29T00:53:45.130Z,5.75
2018-03-29T00:54:47.627Z,5.55
2018-03-29T00:55:50.115Z,6.55
2018-03-29T00:56:52.607Z,6.60
2018-03-29T00:57:55.113Z,5.78
2018-03-29T00:58:57.606Z,4.97
2018-03-29T01:00:00.096Z,5.45
2018-03-29T01:01:02.576Z,7.03
2018-03-29T01:02:05.090Z,6.15
2018-03-29T01:03:07.586Z,5.05
2018-03-29T01:04:10.246Z,4.68
2018-03-29T01:05:12.762Z,7.32
2018-03-29T01:06:15.246Z,6.15
2018-03-29T01:07:18.519Z,6.45
2018-03-29T01:08:21.034Z,7.22
2018-03-29T01:09:23.534Z,5.25
2018-03-29T01:10:26.036Z,7.03
2018-03-29T01:11:29.291Z,6.43
2018-03-29T01:12:31.783Z,6.12
2018-03-29T01:13:34.301Z,6.78
2018-03-29T01:14:36.796Z,4.62
2018-03-29T01:15:39.294Z,6.97
2018-03-29T01:16:41.778Z,6.35
2018-03-29T01:17:45.044Z,7.70
2018-03-29T01:18:47.543Z,7.32
2018-03-29T01:19:50.801Z,7.50
2018-03-29T01:20:53.289Z,8.98
2018-03-29T01:21:55.779Z,10.48
2018-03-29T01:22:59.034Z,6.53
2018-03-29T01:24:01.549Z,7.90
2018-03-29T01:25:04.044Z,8.05
2018-03-29T01:26:06.528Z,7.70
2018-03-29T01:27:09.009Z,9.38
2018-03-29T01:28:11.496Z,7.82
2018-03-29T01:29:13.999Z,10.68
2018-03-29T01:30:16.490Z,8.27
2018-03-29T01:31:18.979Z,17.35
2018-03-29T01:32:40.353Z,12.45
2018-03-29T01:33:42.839Z,11.52
2018-03-29T01:34:45.349Z,7.90
2018-03-29T01:35:47.871Z,14.87
2018-03-29T01:36:50.378Z,10.43
2018-03-29T01:37:52.859Z,9.25
2018-03-29T01:38:55.344Z,10.52
2018-03-29T01:39:58.631Z,11.00
2018-03-29T01:41:01.124Z,10.02
2018-03-29T01:42:03.658Z,13.40
2018-03-29T01:43:06.916Z,14.00
2018-03-29T01:44:09.413Z,12.25
2018-03-29T01:45:11.947Z,10.93
2018-03-29T01:46:14.434Z,13.05
2018-03-29T01:47:16.931Z,13.30
2018-03-29T01:48:19.422Z,16.08
2018-03-29T01:49:22.688Z,13.32
2018-03-29T01:50:25.222Z,14.60
2018-03-29T01:51:27.724Z,13.75
2018-03-29T01:52:30.223Z,14.15
2018-03-29T01:53:33.476Z,13.65
2018-03-29T01:54:35.962Z,15.80
2018-03-29T01:55:38.462Z,14.98
2018-03-29T01:56:41.702Z,15.15
2018-03-29T01:57:44.199Z,13.88
2018-03-29T01:58:47.462Z,15.73
2018-03-29T01:59:49.944Z,11.75
2018-03-29T02:00:52.441Z,9.60
2018-03-29T02:01:55.682Z,11.38
2018-03-29T02:02:58.167Z,12.93
2018-03-29T02:04:00.674Z,13.48
2018-03-29T02:05:03.167Z,13.98
2018-03-29T02:06:05.664Z,14.95
2018-03-29T02:07:08.156Z,11.45
2018-03-29T02:08:10.644Z,12.05
2018-03-29T02:09:13.901Z,13.85
2018-03-29T02:10:16.409Z,14.00
2018-03-29T02:11:19.651Z,9.85
2018-03-29T02:12:22.144Z,11.65
2018-03-29T02:13:24.633Z,10.18
2018-03-29T02:14:27.897Z,12.80
2018-03-29T02:15:30.403Z,13.25
2018-03-29T02:16:32.887Z,10.70
2018-03-29T02:17:35.387Z,10.93
2018-03-29T02:18:37.866Z,14.05
2018-03-29T02:19:40.358Z,12.77
2018-03-29T02:20:43.648Z,10.43
2018-03-29T02:21:46.896Z,11.43
2018-03-29T02:22:49.385Z,10.52
2018-03-29T02:23:51.876Z,12.30
2018-03-29T02:24:55.123Z,10.77
2018-03-29T02:25:57.622Z,10.50
2018-03-29T02:27:00.112Z,9.50
2018-03-29T02:28:03.362Z,11.60
2018-03-29T02:29:05.888Z,11.43
2018-03-29T02:30:08.388Z,13.00
2018-03-29T02:31:10.876Z,13.77
2018-03-29T02:32:13.382Z,10.50
2018-03-29T02:33:16.641Z,10.32
2018-03-29T02:34:19.131Z,10.60
2018-03-29T02:35:22.381Z,9.30
2018-03-29T02:36:24.879Z,8.45
2018-03-29T02:37:28.149Z,11.12
2018-03-29T02:38:30.635Z,8.90
2018-03-29T02:39:33.124Z,11.60
2018-03-29T02:40:36.383Z,8.77
2018-03-29T02:41:38.880Z,11.82
2018-03-29T02:42:42.151Z,11.50
2018-03-29T02:43:44.642Z,10.15
2018-03-29T02:44:47.143Z,14.32
2018-03-29T02:45:49.636Z,12.10
2018-03-29T02:46:52.168Z,12.27
2018-03-29T02:47:54.672Z,12.68
2018-03-29T02:48:57.162Z,11.77
2018-03-29T02:49:59.678Z,12.55
2018-03-29T02:51:02.151Z,11.30
2018-03-29T02:52:04.654Z,14.10
2018-03-29T02:53:07.145Z,14.25
2018-03-29T02:54:10.526Z,12.07
2018-03-29T02:55:13.024Z,13.00
2018-03-29T02:56:16.277Z,11.40
2018-03-29T02:57:19.701Z,15.05
2018-03-29T02:58:22.955Z,10.35
2018-03-29T02:59:25.468Z,12.60
2018-03-29T03:00:28.717Z,13.50
2018-03-29T03:01:32.771Z,14.57
2018-03-29T03:02:35.272Z,14.95
2018-03-29T03:03:37.768Z,12.35
2018-03-29T03:04:40.257Z,13.70
2018-03-29T03:05:43.526Z,9.70
2018-03-29T03:06:46.022Z,10.13
2018-03-29T03:07:49.286Z,10.30
2018-03-29T03:08:51.779Z,8.82
2018-03-29T03:09:55.031Z,9.43
2018-03-29T03:10:57.507Z,11.35
2018-03-29T03:12:00.126Z,10.18
2018-03-29T03:13:02.660Z,9.55
2018-03-29T03:14:05.153Z,12.73
2018-03-29T03:15:08.438Z,10.07
2018-03-29T03:16:11.688Z,10.32
2018-03-29T03:17:14.193Z,12.43
2018-03-29T03:18:17.461Z,11.12
2018-03-29T03:19:19.974Z,9.20
2018-03-29T03:20:22.488Z,12.60
2018-03-29T03:21:24.983Z,10.05
2018-03-29T03:22:28.240Z,8.85
2018-03-29T03:23:30.741Z,12.88
2018-03-29T03:24:33.226Z,9.32
2018-03-29T03:25:36.528Z,14.05
2018-03-29T03:26:39.037Z,10.52
2018-03-29T03:27:41.527Z,9.45
2018-03-29T03:28:44.032Z,8.65
2018-03-29T03:29:46.513Z,9.18
2018-03-29T03:30:49.002Z,8.98
2018-03-29T03:31:51.506Z,12.85
2018-03-29T03:32:54.020Z,12.57
2018-03-29T03:33:56.531Z,9.73
2018-03-29T03:34:59.036Z,12.60
2018-03-29T03:36:02.350Z,8.68
2018-03-29T03:37:04.891Z,12.00
2018-03-29T03:38:07.350Z,11.60
2018-03-29T03:39:09.846Z,8.82
2018-03-29T03:40:13.097Z,15.57
2018-03-29T03:41:15.590Z,12.32
2018-03-29T03:42:18.846Z,14.35
2018-03-29T03:43:21.463Z,10.05
2018-03-29T03:44:24.730Z,14.65
2018-03-29T03:45:27.233Z,11.15
2018-03-29T03:46:29.748Z,11.75
2018-03-29T03:47:32.249Z,11.30
2018-03-29T03:48:35.513Z,12.45
2018-03-29T03:49:38.011Z,15.35
2018-03-29T03:50:41.284Z,16.92
2018-03-29T03:51:43.771Z,11.55
2018-03-29T03:52:47.040Z,10.40
2018-03-29T03:53:49.529Z,12.70
2018-03-29T03:54:52.807Z,11.77
2018-03-29T03:55:56.065Z,14.82
2018-03-29T03:56:58.562Z,12.95
2018-03-29T03:58:01.066Z,13.45
2018-03-29T03:59:03.559Z,12.55
2018-03-29T04:00:06.061Z,13.18
2018-03-29T04:01:09.384Z,12.77
2018-03-29T04:02:12.642Z,16.90
2018-03-29T04:03:15.124Z,11.02
2018-03-29T04:04:18.394Z,13.18
2018-03-29T04:05:21.009Z,16.48
2018-03-29T04:06:23.497Z,13.93
2018-03-29T04:07:25.978Z,11.30
2018-03-29T04:08:28.478Z,11.25
2018-03-29T04:09:30.961Z,9.88
2018-03-29T04:10:33.465Z,13.98
2018-03-29T04:11:35.961Z,13.77
2018-03-29T04:12:38.453Z,14.80
2018-03-29T04:13:40.935Z,12.13
2018-03-29T04:14:43.418Z,10.90
2018-03-29T04:15:46.699Z,11.32
2018-03-29T04:16:49.960Z,15.82
2018-03-29T04:17:52.447Z,15.73
2018-03-29T04:18:54.938Z,14.13
2018-03-29T04:19:58.202Z,14.73
2018-03-29T04:21:00.719Z,10.70
2018-03-29T04:22:03.212Z,11.75
2018-03-29T04:23:05.706Z,15.02
2018-03-29T04:24:08.220Z,11.20
2018-03-29T04:25:11.536Z,10.75
2018-03-29T04:26:14.028Z,11.52
2018-03-29T04:27:16.518Z,12.43
2018-03-29T04:28:19.019Z,12.48
2018-03-29T04:29:21.515Z,12.90
2018-03-29T04:30:24.021Z,14.73
2018-03-29T04:31:26.527Z,14.40
2018-03-29T04:32:29.016Z,13.90
2018-03-29T04:33:31.502Z,12.18
2018-03-29T04:34:33.980Z,14.98
2018-03-29T04:35:36.490Z,15.68
2018-03-29T04:36:39.757Z,13.20
2018-03-29T04:37:42.234Z,12.45
2018-03-29T04:38:44.726Z,14.07
2018-03-29T04:39:47.987Z,20.20
2018-03-29T04:40:50.492Z,13.90
2018-03-29T04:41:53.015Z,14.10
2018-03-29T04:42:55.515Z,16.15
2018-03-29T04:43:58.784Z,14.85
2018-03-29T04:45:02.808Z,14.25
2018-03-29T04:46:06.081Z,12.18
2018-03-29T04:47:08.613Z,17.55
2018-03-29T04:48:11.193Z,13.52
2018-03-29T04:49:13.871Z,15.15
2018-03-29T04:50:16.340Z,16.92
2018-03-29T04:51:18.837Z,14.63
2018-03-29T04:52:21.342Z,13.43
2018-03-29T04:53:23.835Z,19.05
2018-03-29T04:54:26.327Z,17.50
2018-03-29T04:55:28.807Z,15.77
2018-03-29T04:56:32.813Z,17.08
2018-03-29T04:57:35.323Z,15.50
2018-03-29T04:58:37.826Z,16.80
2018-03-29T04:59:40.327Z,14.55
2018-03-29T05:00:42.811Z,15.85
2018-03-29T05:01:46.062Z,18.60
2018-03-29T05:02:48.599Z,13.73
2018-03-29T05:03:51.099Z,16.77
2018-03-29T05:04:53.617Z,19.77
2018-03-29T05:05:56.887Z,16.50
2018-03-29T05:06:59.378Z,18.12
2018-03-29T05:08:02.655Z,20.33
2018-03-29T05:09:05.165Z,17.08
2018-03-29T05:10:07.655Z,17.83
2018-03-29T05:11:10.163Z,16.37
2018-03-29T05:12:12.697Z,16.37
2018-03-29T05:13:15.210Z,14.07
2018-03-29T05:14:18.469Z,18.05
2018-03-29T05:15:20.958Z,17.45
2018-03-29T05:16:24.215Z,16.02
2018-03-29T05:17:26.709Z,18.33
2018-03-29T05:18:29.211Z,16.70
2018-03-29T05:19:32.475Z,19.90
2018-03-29T05:20:34.960Z,16.62
2018-03-29T05:21:38.222Z,17.98
2018-03-29T05:22:40.718Z,17.73
2018-03-29T05:23:43.984Z,19.67
2018-03-29T05:24:46.481Z,17.98
2018-03-29T05:25:49.750Z,16.12
2018-03-29T05:26:54.058Z,17.33
2018-03-29T05:27:56.564Z,15.82
2018-03-29T05:28:59.085Z,19.75
2018-03-29T05:30:01.574Z,17.95
2018-03-29T05:31:04.837Z,15.63
2018-03-29T05:32:07.358Z,22.35
2018-03-29T05:33:10.862Z,18.35
2018-03-29T05:34:13.374Z,17.45
2018-03-29T05:35:15.899Z,22.83
2018-03-29T05:36:18.404Z,19.50
2018-03-29T05:37:20.921Z,21.25
2018-03-29T05:38:24.176Z,20.33
2018-03-29T05:39:26.679Z,22.20
2018-03-29T05:40:30.030Z,21.85
2018-03-29T05:41:32.546Z,23.52
2018-03-29T05:42:35.816Z,19.87
2018-03-29T05:43:39.073Z,21.17
2018-03-29T05:44:41.570Z,28.55
2018-03-29T05:45:44.078Z,20.77
2018-03-29T05:46:46.575Z,20.40
2018-03-29T05:47:49.071Z,21.95
2018-03-29T05:48:51.564Z,18.60
2018-03-29T05:49:54.868Z,24.00
2018-03-29T05:50:58.126Z,21.42
2018-03-29T05:52:00.628Z,29.20
2018-03-29T05:53:03.121Z,28.17
2018-03-29T05:54:05.617Z,26.98
2018-03-29T05:55:08.150Z,23.30
2018-03-29T05:56:10.656Z,25.77
2018-03-29T05:57:13.290Z,25.45
2018-03-29T05:58:15.777Z,25.65
2018-03-29T05:59:18.289Z,27.60
2018-03-29T06:00:20.807Z,28.95
2018-03-29T06:01:23.302Z,27.73
2018-03-29T06:02:25.797Z,24.73
2018-03-29T06:03:28.291Z,26.52
2018-03-29T06:04:31.549Z,26.83
2018-03-29T06:05:34.047Z,29.12
2018-03-29T06:06:37.354Z,33.28
2018-03-29T06:07:39.925Z,26.83
2018-03-29T06:08:42.431Z,26.30
2018-03-29T06:09:44.923Z,33.35
2018-03-29T06:10:47.457Z,31.58
2018-03-29T06:11:49.947Z,25.37
2018-03-29T06:12:52.447Z,29.15
2018-03-29T06:14:01.353Z,26.12
2018-03-29T06:15:09.815Z,27.67
2018-03-29T06:16:20.606Z,29.12
2018-03-29T06:17:25.897Z,29.05
2018-03-29T06:18:32.131Z,39.38
2018-03-29T06:19:34.645Z,28.65
2018-03-29T06:20:37.130Z,31.48
2018-03-29T06:21:39.636Z,30.42
2018-03-29T06:22:42.125Z,28.65
2018-03-29T06:23:45.384Z,30.88
2018-03-29T06:24:47.880Z,31.33
2018-03-29T06:25:51.150Z,31.30
2018-03-29T06:26:53.655Z,31.45
2018-03-29T06:27:56.910Z,30.88
2018-03-29T06:28:59.397Z,31.58
2018-03-29T06:30:02.669Z,32.60
2018-03-29T06:31:05.184Z,30.50
2018-03-29T06:32:07.762Z,29.17
2018-03-29T06:33:10.367Z,32.00
2018-03-29T06:34:12.904Z,32.10
2018-03-29T06:35:15.417Z,32.85
2018-03-29T06:36:17.908Z,29.55
2018-03-29T06:37:21.222Z,30.10
2018-03-29T06:38:23.716Z,32.38
2018-03-29T06:39:26.215Z,30.37
2018-03-29T06:40:28.728Z,32.00
2018-03-29T06:41:31.233Z,31.23
2018-03-29T06:42:33.722Z,31.35
2018-03-29T06:43:36.219Z,30.75
2018-03-29T06:44:39.470Z,32.40
2018-03-29T06:45:41.987Z,28.35
2018-03-29T06:46:45.254Z,30.30
2018-03-29T06:47:48.507Z,29.95
2018-03-29T06:48:51.016Z,31.75
2018-03-29T06:49:53.532Z,27.42
2018-03-29T06:50:56.062Z,31.33
2018-03-29T06:51:59.333Z,34.38
2018-03-29T06:53:01.816Z,29.58
2018-03-29T06:54:04.350Z,33.22
2018-03-29T06:55:06.861Z,34.97
2018-03-29T06:56:10.136Z,34.28
2018-03-29T06:57:12.730Z,33.92
2018-03-29T06:58:16.015Z,31.20
2018-03-29T06:59:19.286Z,33.50
2018-03-29T07:00:21.775Z,31.02
2018-03-29T07:01:25.063Z,30.05
2018-03-29T07:02:28.349Z,34.28
2018-03-29T07:03:31.615Z,31.92
2018-03-29T07:04:34.125Z,36.50
2018-03-29T07:05:36.644Z,33.03
2018-03-29T07:06:39.170Z,32.38
2018-03-29T07:07:41.694Z,37.00
2018-03-29T07:08:44.211Z,34.85
2018-03-29T07:09:46.733Z,33.00
2018-03-29T07:10:49.222Z,37.65
2018-03-29T07:11:51.719Z,32.10
2018-03-29T07:12:54.257Z,29.87
2018-03-29T07:13:56.761Z,35.10
2018-03-29T07:14:59.249Z,34.72
2018-03-29T07:16:01.739Z,37.03
2018-03-29T07:17:04.284Z,35.60
2018-03-29T07:18:06.786Z,35.08
2018-03-29T07:19:09.355Z,33.33
2018-03-29T07:20:12.032Z,32.83
2018-03-29T07:21:14.532Z,32.53
2018-03-29T07:22:17.805Z,34.63
2018-03-29T07:23:20.314Z,34.35
2018-03-29T07:24:22.834Z,32.97
2018-03-29T07:25:25.375Z,43.87
2018-03-29T07:26:27.870Z,43.90
2018-03-29T07:27:30.345Z,34.35
2018-03-29T07:28:32.846Z,35.67
2018-03-29T07:29:36.124Z,36.00
2018-03-29T07:30:38.673Z,33.60
2018-03-29T07:31:41.119Z,33.97
2018-03-29T07:32:44.414Z,44.40
2018-03-29T07:33:46.930Z,36.58
2018-03-29T07:34:50.203Z,35.67
2018-03-29T07:35:52.959Z,34.08
2018-03-29T07:36:55.459Z,36.25
2018-03-29T07:37:57.943Z,32.47
2018-03-29T07:39:01.218Z,31.33
2018-03-29T07:40:03.730Z,38.22
2018-03-29T07:41:06.245Z,32.65
2018-03-29T07:42:08.748Z,33.80
2018-03-29T07:43:12.113Z,36.53
2018-03-29T07:44:14.630Z,30.55
2018-03-29T07:45:17.195Z,32.47
2018-03-29T07:46:19.689Z,32.65
2018-03-29T07:47:22.212Z,34.92
2018-03-29T07:48:25.466Z,33.90
2018-03-29T07:49:27.974Z,31.73
2018-03-29T07:50:31.239Z,35.05
2018-03-29T07:51:33.725Z,33.85
2018-03-29T07:52:37.019Z,31.15
2018-03-29T07:53:40.281Z,36.83
2018-03-29T07:54:42.787Z,36.08
2018-03-29T07:55:45.303Z,34.03
2018-03-29T07:56:47.812Z,32.08
2018-03-29T07:57:51.081Z,33.42
2018-03-29T07:58:54.353Z,37.95
2018-03-29T07:59:56.863Z,30.20
2018-03-29T08:01:00.127Z,33.15
2018-03-29T08:02:02.635Z,29.27
2018-03-29T08:03:05.128Z,32.17
2018-03-29T08:04:07.653Z,27.37
2018-03-29T08:05:10.322Z,28.75
2018-03-29T08:06:12.903Z,26.62
2018-03-29T08:07:15.405Z,29.83
2018-03-29T08:08:17.896Z,33.63
2018-03-29T08:09:20.420Z,26.90
2018-03-29T08:10:23.741Z,29.73
2018-03-29T08:11:26.973Z,35.85
2018-03-29T08:12:29.475Z,32.03
2018-03-29T08:13:31.983Z,30.42
2018-03-29T08:14:34.474Z,27.42
2018-03-29T08:15:37.007Z,29.55
2018-03-29T08:16:39.504Z,36.42
2018-03-29T08:17:41.997Z,31.98
2018-03-29T08:18:44.519Z,28.80
2018-03-29T08:19:47.020Z,28.83
2018-03-29T08:20:49.560Z,25.50
2018-03-29T08:21:52.061Z,28.48
2018-03-29T08:22:54.547Z,24.87
2018-03-29T08:23:57.059Z,26.35
2018-03-29T08:25:00.326Z,31.20
2018-03-29T08:26:03.593Z,34.20
2018-03-29T08:27:06.868Z,32.08
2018-03-29T08:28:09.364Z,30.42
2018-03-29T08:29:12.185Z,28.85
2018-03-29T08:30:14.674Z,36.88
2018-03-29T08:31:17.176Z,29.63
2018-03-29T08:32:20.441Z,35.90
2018-03-29T08:33:22.933Z,32.17
2018-03-29T08:34:25.454Z,31.05
2018-03-29T08:35:27.991Z,29.83
2018-03-29T08:36:31.259Z,29.30
2018-03-29T08:37:35.250Z,30.02
2018-03-29T08:38:37.822Z,32.78
2018-03-29T08:39:40.319Z,27.70
2018-03-29T08:40:43.593Z,27.70
2018-03-29T08:41:46.115Z,33.17
2018-03-29T08:42:48.623Z,29.52
2018-03-29T08:43:51.915Z,32.95
2018-03-29T08:44:54.413Z,27.33
2018-03-29T08:45:57.670Z,27.37
2018-03-29T08:47:00.187Z,27.67
2018-03-29T08:48:02.688Z,28.33
2018-03-29T08:49:05.199Z,27.52
2018-03-29T08:50:07.712Z,29.12
2018-03-29T08:51:10.486Z,33.67
2018-03-29T08:52:12.994Z,31.27
2018-03-29T08:53:15.488Z,26.52
2018-03-29T08:54:23.915Z,26.58
2018-03-29T08:55:27.194Z,29.23
2018-03-29T08:56:30.471Z,30.58
2018-03-29T08:57:33.741Z,30.10
2018-03-29T08:58:36.230Z,31.58
2018-03-29T08:59:38.722Z,27.25
2018-03-29T09:00:41.996Z,28.80
2018-03-29T09:01:45.291Z,30.25
2018-03-29T09:02:48.575Z,32.17
2018-03-29T09:03:51.913Z,27.08
2018-03-29T09:04:54.434Z,27.60
2018-03-29T09:05:57.695Z,29.80
2018-03-29T09:07:00.193Z,30.30
2018-03-29T09:08:03.476Z,29.90
2018-03-29T09:09:06.006Z,30.80
2018-03-29T09:10:08.484Z,25.98
2018-03-29T09:11:11.072Z,30.62
2018-03-29T09:12:15.082Z,25.67
2018-03-29T09:13:17.584Z,24.77
2018-03-29T09:14:20.866Z,25.95
2018-03-29T09:15:24.165Z,27.83
2018-03-29T09:16:27.405Z,29.10
2018-03-29T09:17:29.912Z,27.10
2018-03-29T09:18:33.181Z,32.53
2018-03-29T09:19:35.683Z,28.67
2018-03-29T09:20:38.174Z,30.90
2018-03-29T09:21:40.691Z,27.77
2018-03-29T09:22:43.193Z,25.75
2018-03-29T09:23:45.683Z,30.67
2018-03-29T09:24:48.184Z,29.92
2018-03-29T09:25:50.711Z,25.27
2018-03-29T09:26:53.224Z,24.80
2018-03-29T09:27:55.721Z,27.02
2018-03-29T09:28:58.971Z,27.62
2018-03-29T09:30:01.484Z,28.20
2018-03-29T09:31:04.756Z,27.13
2018-03-29T09:32:07.299Z,27.48
2018-03-29T09:33:09.850Z,27.87
2018-03-29T09:34:12.419Z,25.15
2018-03-29T09:35:14.923Z,28.30
2018-03-29T09:36:17.416Z,30.15
2018-03-29T09:37:19.918Z,25.35
2018-03-29T09:38:22.449Z,32.45
2018-03-29T09:39:24.976Z,27.00
2018-03-29T09:40:27.507Z,26.17
2018-03-29T09:41:30.776Z,31.73
2018-03-29T09:42:33.266Z,28.45
2018-03-29T09:43:36.543Z,28.27
2018-03-29T09:44:39.052Z,26.87
2018-03-29T09:45:41.567Z,29.80
2018-03-29T09:46:44.095Z,30.27
2018-03-29T09:47:46.653Z,33.35
2018-03-29T09:48:49.116Z,27.45
2018-03-29T09:49:52.383Z,27.15
2018-03-29T09:50:54.875Z,29.45
2018-03-29T09:51:58.141Z,31.10
2018-03-29T09:53:00.645Z,31.50
2018-03-29T09:54:03.132Z,28.48
2018-03-29T09:55:05.656Z,31.33
2018-03-29T09:56:08.939Z,29.17
2018-03-29T09:57:11.651Z,29.08
2018-03-29T09:58:14.169Z,27.10
2018-03-29T09:59:16.679Z,30.17
2018-03-29T10:00:24.731Z,27.23
2018-03-29T10:01:27.222Z,27.30
2018-03-29T10:02:31.679Z,32.28
2018-03-29T10:03:39.026Z,29.42
2018-03-29T10:04:41.525Z,33.03
2018-03-29T10:05:44.043Z,32.85
2018-03-29T10:06:47.373Z,27.40
2018-03-29T10:07:50.644Z,33.55
2018-03-29T10:08:53.158Z,28.83
2018-03-29T10:09:55.673Z,34.03
2018-03-29T10:10:58.175Z,28.05
2018-03-29T10:12:01.438Z,28.27
2018-03-29T10:13:03.939Z,28.67
2018-03-29T10:14:06.435Z,30.10
2018-03-29T10:15:09.390Z,41.20
2018-03-29T10:16:12.005Z,28.95
2018-03-29T10:17:14.509Z,25.90
2018-03-29T10:18:17.004Z,26.42
2018-03-29T10:19:19.528Z,24.98
2018-03-29T10:20:22.047Z,30.58
2018-03-29T10:21:24.572Z,29.30
2018-03-29T10:22:27.087Z,30.67
2018-03-29T10:23:29.591Z,26.90
2018-03-29T10:24:32.092Z,30.65
2018-03-29T10:25:34.628Z,29.40
2018-03-29T10:26:37.139Z,27.10
2018-03-29T10:27:39.687Z,31.73
2018-03-29T10:28:42.182Z,29.27
2018-03-29T10:29:44.680Z,28.12
2018-03-29T10:30:47.195Z,28.48
2018-03-29T10:31:49.725Z,29.85
2018-03-29T10:32:52.242Z,28.00
2018-03-29T10:33:54.746Z,30.50
2018-03-29T10:34:58.012Z,33.17
2018-03-29T10:36:00.521Z,30.15
2018-03-29T10:37:03.013Z,34.70
2018-03-29T10:38:05.548Z,30.17
2018-03-29T10:39:08.822Z,28.05
2018-03-29T10:40:12.269Z,35.97
2018-03-29T10:41:14.760Z,31.40
2018-03-29T10:42:17.305Z,33.13
2018-03-29T10:43:19.804Z,33.40
2018-03-29T10:44:22.304Z,31.42
2018-03-29T10:45:25.584Z,28.62
2018-03-29T10:46:28.070Z,29.85
2018-03-29T10:47:31.335Z,27.52
2018-03-29T10:48:33.854Z,34.63
2018-03-29T10:49:36.371Z,27.65
2018-03-29T10:50:39.631Z,27.40
2018-03-29T10:51:42.153Z,27.23
2018-03-29T10:52:45.421Z,31.02
2018-03-29T10:53:47.957Z,29.55
2018-03-29T10:54:50.511Z,30.10
2018-03-29T10:55:53.035Z,27.73
2018-03-29T10:56:56.296Z,28.98
2018-03-29T10:57:58.801Z,28.15
2018-03-29T10:59:02.158Z,30.15
2018-03-29T11:00:04.682Z,29.20
2018-03-29T11:01:07.192Z,32.58
2018-03-29T11:02:09.758Z,31.70
2018-03-29T11:03:12.341Z,33.40
2018-03-29T11:04:14.863Z,30.25
2018-03-29T11:05:18.141Z,30.45
2018-03-29T11:06:21.415Z,29.27
2018-03-29T11:07:25.407Z,32.05
2018-03-29T11:08:27.959Z,32.22
2018-03-29T11:09:30.454Z,31.80
2018-03-29T11:10:32.971Z,31.33
2018-03-29T11:11:35.540Z,31.77
2018-03-29T11:12:38.074Z,27.50
2018-03-29T11:13:40.595Z,31.75
2018-03-29T11:14:43.120Z,29.50
2018-03-29T11:15:45.635Z,28.75
2018-03-29T11:16:48.164Z,32.15
2018-03-29T11:17:51.466Z,32.70
2018-03-29T11:18:54.748Z,33.45
2018-03-29T11:19:57.260Z,28.25
2018-03-29T11:20:59.765Z,28.23
2018-03-29T11:22:03.216Z,30.08
2018-03-29T11:23:05.726Z,34.60
2018-03-29T11:24:08.293Z,30.95
2018-03-29T11:25:11.022Z,31.92
2018-03-29T11:26:13.531Z,27.95
2018-03-29T11:27:16.040Z,33.85
2018-03-29T11:28:19.315Z,31.58
2018-03-29T11:29:22.614Z,37.55
2018-03-29T11:30:25.130Z,31.08
2018-03-29T11:31:27.653Z,27.40
2018-03-29T11:32:30.168Z,27.10
2018-03-29T11:33:32.673Z,30.27
2018-03-29T11:34:35.213Z,32.40
2018-03-29T11:35:37.732Z,26.95
2018-03-29T11:36:40.237Z,31.08
2018-03-29T11:37:42.747Z,30.42
2018-03-29T11:38:45.288Z,30.37
2018-03-29T11:39:48.549Z,29.25
2018-03-29T11:40:51.837Z,27.65
2018-03-29T11:41:55.121Z,28.05
2018-03-29T11:42:58.366Z,23.77
2018-03-29T11:44:01.062Z,25.90
2018-03-29T11:45:03.596Z,27.60
2018-03-29T11:46:06.109Z,26.45
2018-03-29T11:47:09.373Z,26.27
2018-03-29T11:48:12.080Z,31.80
2018-03-29T11:49:15.370Z,31.40
2018-03-29T11:50:18.652Z,29.10
2018-03-29T11:51:21.192Z,32.08
2018-03-29T11:52:23.690Z,30.67
2018-03-29T11:53:26.204Z,29.35
2018-03-29T11:54:28.695Z,25.80
2018-03-29T11:55:31.221Z,22.80
2018-03-29T11:56:34.490Z,25.90
2018-03-29T11:57:37.010Z,27.13
2018-03-29T11:58:39.529Z,29.15
2018-03-29T11:59:42.044Z,26.95
2018-03-29T12:00:44.583Z,27.58
2018-03-29T12:01:47.097Z,26.10
2018-03-29T12:02:49.692Z,26.50
2018-03-29T12:03:52.186Z,27.15
2018-03-29T12:04:55.452Z,31.20
2018-03-29T12:05:57.963Z,28.92
2018-03-29T12:07:01.236Z,32.70
2018-03-29T12:08:04.500Z,30.67
2018-03-29T12:09:06.985Z,28.90
2018-03-29T12:10:09.501Z,27.58
2018-03-29T12:11:12.011Z,29.95
2018-03-29T12:12:15.059Z,29.75
2018-03-29T12:13:17.558Z,23.60
2018-03-29T12:14:20.062Z,26.67
2018-03-29T12:15:23.342Z,27.17
2018-03-29T12:16:26.403Z,24.95
2018-03-29T12:17:28.901Z,27.85
2018-03-29T12:18:32.215Z,22.87
2018-03-29T12:19:34.721Z,27.20
2018-03-29T12:20:37.230Z,24.95
2018-03-29T12:21:40.513Z,26.95
2018-03-29T12:22:43.064Z,24.50
2018-03-29T12:23:45.597Z,23.48
2018-03-29T12:24:48.117Z,21.70
2018-03-29T12:25:50.626Z,22.37
2018-03-29T12:26:53.191Z,26.10
2018-03-29T12:27:56.487Z,27.37
2018-03-29T12:28:59.060Z,24.35
2018-03-29T12:30:01.551Z,25.58
2018-03-29T12:31:04.054Z,23.27
2018-03-29T12:32:06.551Z,27.30
2018-03-29T12:33:10.090Z,24.27
2018-03-29T12:34:12.636Z,20.48
2018-03-29T12:35:15.207Z,31.42
2018-03-29T12:36:17.724Z,22.30
2018-03-29T12:37:20.236Z,24.95
2018-03-29T12:38:22.772Z,26.95
2018-03-29T12:39:25.310Z,22.15
2018-03-29T12:40:27.786Z,23.77
2018-03-29T12:41:30.292Z,24.52
2018-03-29T12:42:32.826Z,22.08
2018-03-29T12:43:35.376Z,22.90
2018-03-29T12:44:37.921Z,29.55
2018-03-29T12:45:41.196Z,24.10
2018-03-29T12:46:44.450Z,25.42
2018-03-29T12:47:46.964Z,21.10
2018-03-29T12:48:50.266Z,26.80
2018-03-29T12:49:53.543Z,21.67
2018-03-29T12:50:56.887Z,21.75
2018-03-29T12:51:59.452Z,17.62
2018-03-29T12:53:01.990Z,22.60
2018-03-29T12:54:04.526Z,24.08
2018-03-29T12:55:19.716Z,20.62
2018-03-29T12:58:17.959Z,21.62
2018-03-29T12:59:20.520Z,18.92
2018-03-29T13:00:23.009Z,17.37
2018-03-29T13:01:27.348Z,19.27
2018-03-29T13:02:29.873Z,20.25
2018-03-29T13:03:32.407Z,19.35
2018-03-29T13:04:35.668Z,21.00
2018-03-29T13:05:38.206Z,16.87
2018-03-29T13:06:40.975Z,20.02
2018-03-29T13:07:43.619Z,20.35
2018-03-29T13:08:46.942Z,20.00
2018-03-29T13:09:49.604Z,19.27
2018-03-29T13:10:52.118Z,35.83
2018-03-29T13:11:54.638Z,24.30
2018-03-29T13:12:57.922Z,15.50
2018-03-29T13:14:01.190Z,22.17
2018-03-29T13:15:03.696Z,16.08
2018-03-29T13:16:06.213Z,18.55
2018-03-29T13:17:08.718Z,16.55
2018-03-29T13:18:12.025Z,18.52
2018-03-29T13:19:14.556Z,17.55
2018-03-29T13:20:17.089Z,20.05
2018-03-29T13:21:19.613Z,25.60
2018-03-29T13:22:22.904Z,22.25
2018-03-29T13:23:26.181Z,19.83
2018-03-29T13:24:28.730Z,21.42
2018-03-29T13:25:31.227Z,18.55
2018-03-29T13:26:33.741Z,15.38
2018-03-29T13:27:36.235Z,14.10
2018-03-29T13:28:38.733Z,14.80
2018-03-29T13:29:41.248Z,13.52
2018-03-29T13:30:43.738Z,11.63
2018-03-29T13:31:46.243Z,12.40
2018-03-29T13:32:48.763Z,12.00
2018-03-29T13:33:51.292Z,12.70
2018-03-29T13:34:54.588Z,15.98